createdAt,value
2022-10-11T00:03:48.963Z,90.7
2022-10-11T00:13:48.945Z,91.2
2022-10-11T00:23:48.982Z,91.6
2022-10-11T00:33:48.995Z,91.9
2022-10-11T00:43:49.057Z,92.2
2022-10-11T00:53:49.039Z,92.7
2022-10-11T01:03:49.084Z,93.2
2022-10-11T01:13:49.084Z,93.3
2022-10-11T01:23:49.143Z,93
2022-10-11T01:33:49.124Z,93.1
2022-10-11T01:43:49.163Z,93
2022-10-11T01:53:49.178Z,93.1
2022-10-11T02:03:49.228Z,93.2
2022-10-11T02:13:49.210Z,93.2
2022-10-11T02:23:49.262Z,93.7
2022-10-11T02:33:49.255Z,93.5
2022-10-11T02:43:49.291Z,93.1
2022-10-11T02:53:49.294Z,93
2022-10-11T03:03:49.333Z,93.8
2022-10-11T03:13:49.336Z,94.2
2022-10-11T03:23:49.375Z,94.7
2022-10-11T03:33:49.368Z,94.8
2022-10-11T03:43:49.465Z,95
2022-10-11T03:53:49.431Z,95.1
2022-10-11T04:03:49.484Z,95.1
2022-10-11T04:13:49.478Z,95
2022-10-11T04:23:49.521Z,95.3
2022-10-11T04:33:49.511Z,95.3
2022-10-11T04:43:49.573Z,95.5
2022-10-11T04:53:49.557Z,95.5
2022-10-11T05:03:49.635Z,95.5
2022-10-11T05:13:49.649Z,95.3
2022-10-11T05:23:49.705Z,95.4
2022-10-11T05:33:49.684Z,95.5
2022-10-11T05:43:49.729Z,95.7
2022-10-11T05:53:49.757Z,95.8
2022-10-11T06:03:49.770Z,96
2022-10-11T06:13:49.762Z,96.1
2022-10-11T06:23:49.794Z,96.1
2022-10-11T06:33:49.826Z,96
2022-10-11T06:43:49.871Z,95.4
2022-10-11T06:53:49.857Z,95.5
2022-10-11T07:03:49.891Z,95.6
2022-10-11T07:13:49.891Z,95.9
2022-10-11T07:23:49.932Z,95.7
2022-10-11T07:33:49.922Z,95.6
2022-10-11T07:53:50.019Z,95.2
2022-10-11T08:03:50.002Z,95
2022-10-11T08:13:50.064Z,95
2022-10-11T08:33:50.062Z,94.6
2022-10-11T08:43:50.070Z,94.5
2022-10-11T08:53:50.156Z,94.3
2022-10-11T09:03:50.125Z,94.2
2022-10-11T09:13:50.178Z,93.9
2022-10-11T09:23:50.158Z,93.7
2022-10-11T09:43:50.222Z,92.7
2022-10-11T09:53:50.216Z,92.7
2022-10-11T10:13:50.307Z,91
2022-10-11T10:23:50.260Z,90.1
2022-10-11T10:53:50.361Z,87
2022-10-11T11:13:50.393Z,83.7
2022-10-11T11:23:50.386Z,80.9
2022-10-11T11:33:50.438Z,77.2
2022-10-11T11:43:50.433Z,74.9
2022-10-11T11:53:50.465Z,68.9
2022-10-11T12:03:50.449Z,67.1
2022-10-11T12:13:50.494Z,64.9
2022-10-11T12:23:50.487Z,68.2
2022-10-11T12:33:50.525Z,67.7
2022-10-11T12:43:50.520Z,69.4
2022-10-11T12:54:07.992Z,68.3
2022-10-11T13:03:50.573Z,68.8
2022-10-11T13:13:50.609Z,66.2
2022-10-11T13:23:50.590Z,66.8
2022-10-11T13:33:50.679Z,67.9
2022-10-11T13:43:50.659Z,69
2022-10-11T14:03:50.695Z,69.7
2022-10-11T14:13:50.685Z,70.2
2022-10-11T14:23:50.797Z,70.3
2022-10-11T14:33:50.721Z,71.4
2022-10-11T14:43:50.766Z,71.4
2022-10-11T14:53:50.759Z,71.4
2022-10-11T15:03:50.787Z,70.6
2022-10-11T15:13:50.791Z,71.5
2022-10-11T15:33:50.843Z,72.1
2022-10-11T15:43:50.835Z,73.5
2022-10-11T15:53:50.883Z,73.9
2022-10-11T16:03:50.875Z,75.2
2022-10-11T16:13:50.922Z,75.9
2022-10-11T16:23:50.919Z,76.5
2022-10-11T16:33:50.967Z,77.4
2022-10-11T16:43:50.961Z,78.5
2022-10-11T16:53:50.994Z,79.7
2022-10-11T17:03:50.984Z,81
2022-10-11T17:13:51.041Z,81.2
2022-10-11T17:23:51.030Z,82.1
2022-10-11T17:33:51.072Z,83.1
2022-10-11T17:43:51.082Z,83
2022-10-11T17:53:51.116Z,82.7
2022-10-11T18:03:51.115Z,82.6
2022-10-11T18:13:51.165Z,82.1
2022-10-11T18:23:51.142Z,82.2
2022-10-11T18:33:51.193Z,83.7
2022-10-11T18:43:51.198Z,85.4
2022-10-11T18:53:51.233Z,86.7
2022-10-11T19:03:51.234Z,87.6
2022-10-11T19:13:51.302Z,88.1
2022-10-11T19:23:51.275Z,88
2022-10-11T19:33:51.312Z,88.1
2022-10-11T19:43:51.339Z,88.7
2022-10-11T19:53:51.379Z,89.1
2022-10-11T20:33:51.470Z,89.3
2022-10-11T21:33:51.620Z,91.4
2022-10-11T23:03:51.912Z,93.8
2022-10-11T23:33:51.903Z,93.5
2022-10-11T23:43:51.897Z,93.8
